»·PEaware :: QXE2436 KGEG-KBOI

QXE2436 :: KGEG-KBOI

FLIGHT INFORMATION

Flight Status: Arrived
Operator:
Horizon Air
More flights by this operator :: More flights under this callsign
Pilot: Trevor S. (2559)
Aircraft: DEHAVILLAND DASH 8 400
(DH8D)
More flights by this aircraft type
Origin: KGEG Spokane Intl
United States
Destination: KBOI Boise Air Terminal/Gowen
United States
More flights between these airports :: More routes between these airports
Route: +GEG6 GEG V253 DNJ COLLR BEWTE3
File this flight plan on PilotEdge
Remarks: FSEconomy, Real WX
Altitude:
(Current/Filed)
25,000ft
Speed:
(Current/Filed)
342kts
Departed: 30-Mar-20 04:30 PM
Arrived: 30-Mar-20 05:28 PM
Distance/Time
Traveled:
249nm/0:57
Distance/Time
To Go:
Arrived

Flight Plot

Page will automatically refresh every two minutes.


Map Options




Map Legend


Flown Route
Filed Route
Departure Airport
Arrival Airport
Navaid (VOR, NDB)
Fix

Horizontal Profiles

Position Reports

Time Latitude Longitude Heading Altitude Ground
Speed
30-Mar-20 15:51 47.624056 -117.537766 223 2357ft 0kts
30-Mar-20 15:52 47.624056 -117.537767 223 2357ft 0kts
30-Mar-20 15:53 47.624056 -117.537767 223 2357ft 0kts
30-Mar-20 15:54 47.624056 -117.537767 223 2357ft 0kts
30-Mar-20 15:55 47.624056 -117.537767 223 2357ft 0kts
30-Mar-20 15:56 47.624056 -117.537767 223 2357ft 0kts
30-Mar-20 15:57 47.624056 -117.537767 223 2357ft 0kts
30-Mar-20 15:58 47.624056 -117.537767 223 2357ft 0kts
30-Mar-20 15:59 47.624056 -117.537767 223 2357ft 0kts
30-Mar-20 16:00 47.624056 -117.537767 223 2357ft 0kts
30-Mar-20 16:01 47.624056 -117.537767 223 2357ft 0kts
30-Mar-20 16:02 47.624056 -117.537767 223 2357ft 0kts
30-Mar-20 16:03 47.624056 -117.537767 223 2357ft 0kts
30-Mar-20 16:04 47.624056 -117.537767 223 2357ft 0kts
30-Mar-20 16:05 47.624056 -117.537767 223 2357ft 0kts
30-Mar-20 16:06 47.624056 -117.537767 223 2357ft 0kts
30-Mar-20 16:07 47.624056 -117.537767 223 2357ft 0kts
30-Mar-20 16:08 47.624056 -117.537767 223 2357ft 0kts
30-Mar-20 16:09 47.624056 -117.537767 223 2357ft 0kts
30-Mar-20 16:10 47.624056 -117.537767 223 2357ft 0kts
30-Mar-20 16:11 47.624056 -117.537767 223 2357ft 0kts
30-Mar-20 16:12 47.624056 -117.537767 223 2357ft 0kts
30-Mar-20 16:13 47.624056 -117.537767 223 2357ft 0kts
30-Mar-20 16:14 47.624056 -117.537767 223 2357ft 0kts
30-Mar-20 16:15 47.624056 -117.537767 223 2357ft 0kts
30-Mar-20 16:16 47.624056 -117.537767 223 2357ft 0kts
30-Mar-20 16:17 47.624056 -117.537767 223 2357ft 0kts
30-Mar-20 16:18 47.624126 -117.537180 332 2357ft 3kts
30-Mar-20 16:19 47.623425 -117.537151 42 2357ft 0kts
30-Mar-20 16:20 47.623425 -117.537151 42 2357ft 0kts
30-Mar-20 16:21 47.623425 -117.537151 42 2357ft 0kts
30-Mar-20 16:22 47.623425 -117.537151 42 2357ft 0kts
30-Mar-20 16:23 47.623425 -117.537151 42 2357ft 0kts
30-Mar-20 16:24 47.623596 -117.536919 43 2357ft 0kts
30-Mar-20 16:25 47.623516 -117.536124 109 2357ft 10kts
30-Mar-20 16:26 47.626006 -117.530193 44 2357ft 21kts
30-Mar-20 16:27 47.629665 -117.524670 46 2357ft 25kts
30-Mar-20 16:28 47.632291 -117.519792 136 2357ft 7kts
30-Mar-20 16:29 47.629791 -117.520549 225 2357ft 49kts
30-Mar-20 16:30 47.609092 -117.553332 225 3881ft 141kts
30-Mar-20 16:31 47.576094 -117.602362 225 6452ft 180kts
30-Mar-20 16:32 47.533066 -117.660291 225 8323ft 233kts
30-Mar-20 16:33 47.482084 -117.722604 225 10461ft 248kts
30-Mar-20 16:34 47.425451 -117.786939 225 11949ft 271kts
30-Mar-20 16:35 47.360867 -117.826750 172 14002ft 284kts
30-Mar-20 16:36 47.290376 -117.780447 165 16105ft 273kts
30-Mar-20 16:37 47.223750 -117.736147 166 18083ft 256kts
30-Mar-20 16:38 47.160068 -117.693907 167 19690ft 251kts
30-Mar-20 16:39 47.097186 -117.652447 168 21197ft 247kts
30-Mar-20 16:40 47.035062 -117.611570 168 22555ft 246kts
30-Mar-20 16:41 46.971561 -117.570501 168 23683ft 251kts
30-Mar-20 16:42 46.907317 -117.529031 168 24664ft 257kts
30-Mar-20 16:43 46.838306 -117.485318 168 24857ft 287kts
30-Mar-20 16:45 46.762062 -117.437169 167 24862ft 314kts
30-Mar-20 16:46 46.680046 -117.385032 166 24874ft 331kts
30-Mar-20 16:47 46.595660 -117.331484 166 24861ft 338kts
30-Mar-20 16:48 46.509168 -117.276525 166 24860ft 341kts
30-Mar-20 16:49 46.422151 -117.221377 166 24860ft 342kts
30-Mar-20 16:50 46.335348 -117.166347 166 24931ft 342kts
30-Mar-20 16:51 46.247867 -117.111220 166 24935ft 346kts
30-Mar-20 16:52 46.159521 -117.056017 166 24873ft 348kts
30-Mar-20 16:53 46.071110 -117.000658 166 24874ft 347kts
30-Mar-20 16:54 45.983853 -116.946175 166 24860ft 343kts
30-Mar-20 16:55 45.897946 -116.892632 166 24860ft 338kts
30-Mar-20 16:56 45.812028 -116.839344 166 24860ft 336kts
30-Mar-20 16:57 45.726894 -116.786747 166 24860ft 335kts
30-Mar-20 16:58 45.641826 -116.734385 166 24860ft 334kts
30-Mar-20 16:59 45.556655 -116.682145 166 24860ft 333kts
30-Mar-20 17:00 45.472041 -116.630427 166 24860ft 333kts
30-Mar-20 17:01 45.387074 -116.578670 166 24860ft 333kts
30-Mar-20 17:02 45.302496 -116.527323 166 24860ft 333kts
30-Mar-20 17:03 45.217885 -116.476128 166 24864ft 332kts
30-Mar-20 17:04 45.133865 -116.426977 165 24956ft 324kts
30-Mar-20 17:05 45.052231 -116.378261 164 24961ft 320kts
30-Mar-20 17:05 44.985139 -116.337202 165 24946ft 319kts
30-Mar-20 17:06 44.903828 -116.286991 166 24912ft 324kts
30-Mar-20 17:08 44.805417 -116.229024 166 23427ft 339kts
30-Mar-20 17:08 44.732785 -116.215899 198 22021ft 311kts
30-Mar-20 17:09 44.649011 -116.239588 198 20329ft 308kts
30-Mar-20 17:10 44.565562 -116.262784 198 18671ft 308kts
30-Mar-20 17:12 44.468543 -116.289989 197 16618ft 308kts
30-Mar-20 17:12 44.399981 -116.308177 198 15283ft 301kts
30-Mar-20 17:13 44.323285 -116.331896 201 14937ft 272kts
30-Mar-20 17:14 44.249498 -116.357069 200 14929ft 281kts
30-Mar-20 17:15 44.174447 -116.380956 200 14583ft 280kts
30-Mar-20 17:16 44.101198 -116.402896 200 13092ft 263kts
30-Mar-20 17:17 44.032998 -116.423612 201 11715ft 245kts
30-Mar-20 17:18 43.966557 -116.419236 183 10398ft 236kts
30-Mar-20 17:19 43.903532 -116.403909 182 9134ft 232kts
30-Mar-20 17:20 43.839803 -116.387828 179 7869ft 236kts
30-Mar-20 17:21 43.777515 -116.371029 178 6601ft 218kts
30-Mar-20 17:22 43.721300 -116.356561 178 5813ft 199kts
30-Mar-20 17:23 43.667601 -116.343640 179 5060ft 195kts
30-Mar-20 17:24 43.638361 -116.337842 179 4663ft 190kts
30-Mar-20 17:25 43.591120 -116.306565 127 3799ft 195kts
30-Mar-20 17:26 43.573298 -116.252512 117 2974ft 127kts
30-Mar-20 17:27 43.563927 -116.224706 115 2878ft 14kts
30-Mar-20 17:28 43.564644 -116.223697 6 2878ft 0kts
30-Mar-20 17:29 43.566954 -116.223031 9 2878ft 6kts
30-Mar-20 17:30 43.567519 -116.222866 13 2878ft 0kts
30-Mar-20 17:31 43.567519 -116.222866 13 2878ft 0kts
30-Mar-20 17:32 43.567519 -116.222866 13 2878ft 0kts
30-Mar-20 17:33 43.567519 -116.222866 13 2878ft 0kts
30-Mar-20 17:34 43.567519 -116.222866 13 2878ft 0kts

Navigation Log

Ident Type
Flight plan parsing failed, navigation log unavailable